sensor_id;sensor_type;location;lat;lon;timestamp;P1;durP1;ratioP1;P2;durP2;ratioP2
39346;SDS011;26262;49.836;6.632;2024-03-17T00:01:35;6.25;;;3.97;;
39346;SDS011;26262;49.836;6.632;2024-03-17T00:04:01;5.65;;;3.38;;
39346;SDS011;26262;49.836;6.632;2024-03-17T00:06:27;6.88;;;3.97;;
39346;SDS011;26262;49.836;6.632;2024-03-17T00:08:53;5.20;;;3.78;;
39346;SDS011;26262;49.836;6.632;2024-03-17T00:11:19;6.38;;;3.78;;
39346;SDS011;26262;49.836;6.632;2024-03-17T00:13:45;5.47;;;3.75;;
39346;SDS011;26262;49.836;6.632;2024-03-17T00:16:11;5.72;;;4.10;;
39346;SDS011;26262;49.836;6.632;2024-03-17T00:18:38;6.18;;;4.28;;
39346;SDS011;26262;49.836;6.632;2024-03-17T00:21:03;6.72;;;3.85;;
39346;SDS011;26262;49.836;6.632;2024-03-17T00:23:29;5.40;;;3.65;;
39346;SDS011;26262;49.836;6.632;2024-03-17T00:25:55;6.28;;;4.18;;
39346;SDS011;26262;49.836;6.632;2024-03-17T00:28:20;5.68;;;3.65;;
39346;SDS011;26262;49.836;6.632;2024-03-17T00:30:46;5.25;;;3.80;;
39346;SDS011;26262;49.836;6.632;2024-03-17T00:33:11;4.82;;;4.05;;
39346;SDS011;26262;49.836;6.632;2024-03-17T00:35:37;9.18;;;5.35;;
39346;SDS011;26262;49.836;6.632;2024-03-17T00:38:02;5.75;;;3.60;;
39346;SDS011;26262;49.836;6.632;2024-03-17T00:40:36;6.03;;;4.10;;
39346;SDS011;26262;49.836;6.632;2024-03-17T00:43:02;6.00;;;3.87;;
39346;SDS011;26262;49.836;6.632;2024-03-17T00:45:28;8.23;;;3.92;;
39346;SDS011;26262;49.836;6.632;2024-03-17T00:47:53;5.35;;;4.30;;
39346;SDS011;26262;49.836;6.632;2024-03-17T00:50:19;5.00;;;3.53;;
39346;SDS011;26262;49.836;6.632;2024-03-17T00:52:44;6.82;;;4.40;;
39346;SDS011;26262;49.836;6.632;2024-03-17T00:55:10;4.57;;;4.03;;
39346;SDS011;26262;49.836;6.632;2024-03-17T00:57:35;5.13;;;3.72;;
39346;SDS011;26262;49.836;6.632;2024-03-17T01:00:02;5.10;;;4.00;;
39346;SDS011;26262;49.836;6.632;2024-03-17T01:02:29;6.60;;;3.78;;
39346;SDS011;26262;49.836;6.632;2024-03-17T01:04:54;3.95;;;3.50;;
39346;SDS011;26262;49.836;6.632;2024-03-17T01:07:20;5.05;;;3.90;;
39346;SDS011;26262;49.836;6.632;2024-03-17T01:09:46;4.72;;;3.67;;
39346;SDS011;26262;49.836;6.632;2024-03-17T01:12:12;6.72;;;4.60;;
39346;SDS011;26262;49.836;6.632;2024-03-17T01:14:38;5.45;;;4.05;;
39346;SDS011;26262;49.836;6.632;2024-03-17T01:17:03;6.18;;;4.65;;
39346;SDS011;26262;49.836;6.632;2024-03-17T01:19:30;6.97;;;4.53;;
39346;SDS011;26262;49.836;6.632;2024-03-17T01:21:56;6.40;;;4.20;;
39346;SDS011;26262;49.836;6.632;2024-03-17T01:24:22;6.78;;;4.25;;
39346;SDS011;26262;49.836;6.632;2024-03-17T01:26:47;5.22;;;4.22;;
39346;SDS011;26262;49.836;6.632;2024-03-17T01:29:13;5.95;;;4.38;;
39346;SDS011;26262;49.836;6.632;2024-03-17T01:31:38;6.25;;;3.90;;
39346;SDS011;26262;49.836;6.632;2024-03-17T01:34:04;5.50;;;3.90;;
39346;SDS011;26262;49.836;6.632;2024-03-17T01:36:29;6.85;;;3.97;;
39346;SDS011;26262;49.836;6.632;2024-03-17T01:38:55;5.05;;;3.80;;
39346;SDS011;26262;49.836;6.632;2024-03-17T01:41:21;6.43;;;3.70;;
39346;SDS011;26262;49.836;6.632;2024-03-17T01:43:46;8.23;;;4.75;;
39346;SDS011;26262;49.836;6.632;2024-03-17T01:46:15;5.55;;;3.80;;
39346;SDS011;26262;49.836;6.632;2024-03-17T01:48:42;6.65;;;4.22;;
39346;SDS011;26262;49.836;6.632;2024-03-17T01:51:10;6.30;;;4.10;;
39346;SDS011;26262;49.836;6.632;2024-03-17T01:53:36;6.97;;;4.20;;
39346;SDS011;26262;49.836;6.632;2024-03-17T01:56:04;6.18;;;4.10;;
39346;SDS011;26262;49.836;6.632;2024-03-17T01:58:30;7.85;;;3.80;;
39346;SDS011;26262;49.836;6.632;2024-03-17T02:00:56;7.28;;;4.30;;
39346;SDS011;26262;49.836;6.632;2024-03-17T02:03:22;6.05;;;3.72;;
39346;SDS011;26262;49.836;6.632;2024-03-17T02:05:47;7.88;;;4.35;;
39346;SDS011;26262;49.836;6.632;2024-03-17T02:08:13;6.15;;;3.45;;
39346;SDS011;26262;49.836;6.632;2024-03-17T02:10:39;6.40;;;3.97;;
39346;SDS011;26262;49.836;6.632;2024-03-17T02:13:05;4.80;;;3.90;;
39346;SDS011;26262;49.836;6.632;2024-03-17T02:15:31;6.00;;;3.95;;
39346;SDS011;26262;49.836;6.632;2024-03-17T02:17:57;8.55;;;3.65;;
39346;SDS011;26262;49.836;6.632;2024-03-17T02:20:23;5.82;;;3.83;;
39346;SDS011;26262;49.836;6.632;2024-03-17T02:23:07;6.50;;;3.72;;
39346;SDS011;26262;49.836;6.632;2024-03-17T02:25:33;6.95;;;4.40;;
39346;SDS011;26262;49.836;6.632;2024-03-17T02:27:59;5.18;;;3.85;;
39346;SDS011;26262;49.836;6.632;2024-03-17T02:30:24;5.20;;;3.80;;
39346;SDS011;26262;49.836;6.632;2024-03-17T02:32:53;6.22;;;3.08;;
39346;SDS011;26262;49.836;6.632;2024-03-17T02:35:19;5.35;;;3.75;;
39346;SDS011;26262;49.836;6.632;2024-03-17T02:37:46;4.85;;;3.30;;
39346;SDS011;26262;49.836;6.632;2024-03-17T02:40:12;6.40;;;3.58;;
39346;SDS011;26262;49.836;6.632;2024-03-17T02:42:38;5.95;;;3.45;;
39346;SDS011;26262;49.836;6.632;2024-03-17T02:47:33;9.63;;;3.93;;
39346;SDS011;26262;49.836;6.632;2024-03-17T02:49:59;7.72;;;3.75;;
39346;SDS011;26262;49.836;6.632;2024-03-17T02:52:25;4.57;;;4.03;;
39346;SDS011;26262;49.836;6.632;2024-03-17T02:54:51;6.45;;;4.60;;
39346;SDS011;26262;49.836;6.632;2024-03-17T02:57:18;5.45;;;3.78;;
39346;SDS011;26262;49.836;6.632;2024-03-17T02:59:43;7.13;;;4.75;;
39346;SDS011;26262;49.836;6.632;2024-03-17T03:02:11;5.95;;;3.80;;
39346;SDS011;26262;49.836;6.632;2024-03-17T03:04:37;5.88;;;3.22;;
39346;SDS011;26262;49.836;6.632;2024-03-17T03:07:02;6.15;;;3.85;;
39346;SDS011;26262;49.836;6.632;2024-03-17T03:09:28;5.45;;;3.42;;
39346;SDS011;26262;49.836;6.632;2024-03-17T03:11:57;7.32;;;3.83;;
39346;SDS011;26262;49.836;6.632;2024-03-17T03:14:24;4.78;;;3.90;;
39346;SDS011;26262;49.836;6.632;2024-03-17T03:16:49;5.22;;;2.97;;
39346;SDS011;26262;49.836;6.632;2024-03-17T03:19:16;8.55;;;3.58;;
39346;SDS011;26262;49.836;6.632;2024-03-17T03:21:42;5.55;;;3.55;;
39346;SDS011;26262;49.836;6.632;2024-03-17T03:24:07;5.20;;;3.80;;
39346;SDS011;26262;49.836;6.632;2024-03-17T03:26:32;6.28;;;3.47;;
39346;SDS011;26262;49.836;6.632;2024-03-17T03:28:58;4.60;;;3.47;;
39346;SDS011;26262;49.836;6.632;2024-03-17T03:31:24;5.63;;;3.53;;
39346;SDS011;26262;49.836;6.632;2024-03-17T03:33:49;4.60;;;3.60;;
39346;SDS011;26262;49.836;6.632;2024-03-17T03:36:15;6.00;;;3.40;;
39346;SDS011;26262;49.836;6.632;2024-03-17T03:38:43;6.90;;;3.97;;
39346;SDS011;26262;49.836;6.632;2024-03-17T03:41:10;6.57;;;3.72;;
39346;SDS011;26262;49.836;6.632;2024-03-17T03:43:37;6.97;;;3.47;;
39346;SDS011;26262;49.836;6.632;2024-03-17T03:46:03;4.82;;;3.40;;
39346;SDS011;26262;49.836;6.632;2024-03-17T03:48:29;4.10;;;3.30;;
39346;SDS011;26262;49.836;6.632;2024-03-17T03:50:55;7.75;;;3.22;;
39346;SDS011;26262;49.836;6.632;2024-03-17T03:53:21;9.55;;;3.85;;
39346;SDS011;26262;49.836;6.632;2024-03-17T03:55:47;5.60;;;3.25;;
39346;SDS011;26262;49.836;6.632;2024-03-17T03:58:13;5.03;;;3.28;;
39346;SDS011;26262;49.836;6.632;2024-03-17T04:00:39;5.55;;;3.28;;
39346;SDS011;26262;49.836;6.632;2024-03-17T04:03:05;5.78;;;3.58;;
39346;SDS011;26262;49.836;6.632;2024-03-17T04:05:31;8.50;;;3.65;;
39346;SDS011;26262;49.836;6.632;2024-03-17T04:07:58;5.10;;;3.20;;
39346;SDS011;26262;49.836;6.632;2024-03-17T04:10:24;6.03;;;3.60;;
39346;SDS011;26262;49.836;6.632;2024-03-17T04:12:50;5.80;;;3.50;;
39346;SDS011;26262;49.836;6.632;2024-03-17T04:15:16;4.55;;;3.13;;
39346;SDS011;26262;49.836;6.632;2024-03-17T04:17:42;7.03;;;3.72;;
39346;SDS011;26262;49.836;6.632;2024-03-17T04:20:08;5.68;;;3.80;;
39346;SDS011;26262;49.836;6.632;2024-03-17T04:22:35;5.53;;;4.00;;
39346;SDS011;26262;49.836;6.632;2024-03-17T04:25:01;5.40;;;3.28;;
39346;SDS011;26262;49.836;6.632;2024-03-17T04:27:28;6.57;;;3.97;;
39346;SDS011;26262;49.836;6.632;2024-03-17T04:29:54;6.28;;;3.65;;
39346;SDS011;26262;49.836;6.632;2024-03-17T04:32:21;5.97;;;3.80;;
39346;SDS011;26262;49.836;6.632;2024-03-17T04:34:47;5.45;;;4.03;;
39346;SDS011;26262;49.836;6.632;2024-03-17T04:37:13;6.05;;;4.40;;
39346;SDS011;26262;49.836;6.632;2024-03-17T04:39:39;6.47;;;3.20;;
39346;SDS011;26262;49.836;6.632;2024-03-17T04:42:09;5.10;;;4.00;;
39346;SDS011;26262;49.836;6.632;2024-03-17T04:44:35;5.07;;;2.58;;
39346;SDS011;26262;49.836;6.632;2024-03-17T04:47:01;4.05;;;3.08;;
39346;SDS011;26262;49.836;6.632;2024-03-17T04:49:31;5.40;;;4.63;;
39346;SDS011;26262;49.836;6.632;2024-03-17T04:52:07;4.82;;;3.83;;
39346;SDS011;26262;49.836;6.632;2024-03-17T04:54:34;4.82;;;3.80;;
39346;SDS011;26262;49.836;6.632;2024-03-17T04:57:00;6.40;;;3.90;;
39346;SDS011;26262;49.836;6.632;2024-03-17T04:59:26;8.60;;;4.32;;
39346;SDS011;26262;49.836;6.632;2024-03-17T05:01:52;5.45;;;3.90;;
39346;SDS011;26262;49.836;6.632;2024-03-17T05:04:18;6.30;;;3.88;;
39346;SDS011;26262;49.836;6.632;2024-03-17T05:06:43;7.35;;;4.63;;
39346;SDS011;26262;49.836;6.632;2024-03-17T05:09:12;6.63;;;4.20;;
39346;SDS011;26262;49.836;6.632;2024-03-17T05:11:38;5.47;;;3.83;;
39346;SDS011;26262;49.836;6.632;2024-03-17T05:14:04;6.95;;;4.50;;
39346;SDS011;26262;49.836;6.632;2024-03-17T05:16:30;6.05;;;3.83;;
39346;SDS011;26262;49.836;6.632;2024-03-17T05:18:55;6.25;;;3.40;;
39346;SDS011;26262;49.836;6.632;2024-03-17T05:21:21;4.55;;;3.65;;
39346;SDS011;26262;49.836;6.632;2024-03-17T05:23:51;4.88;;;3.90;;
39346;SDS011;26262;49.836;6.632;2024-03-17T05:26:17;6.53;;;3.75;;
39346;SDS011;26262;49.836;6.632;2024-03-17T05:28:43;5.78;;;3.40;;
39346;SDS011;26262;49.836;6.632;2024-03-17T05:31:09;5.65;;;3.78;;
39346;SDS011;26262;49.836;6.632;2024-03-17T05:33:34;7.57;;;3.55;;
39346;SDS011;26262;49.836;6.632;2024-03-17T05:36:01;6.80;;;3.90;;
39346;SDS011;26262;49.836;6.632;2024-03-17T05:38:28;4.32;;;3.30;;
39346;SDS011;26262;49.836;6.632;2024-03-17T05:40:55;5.53;;;4.10;;
39346;SDS011;26262;49.836;6.632;2024-03-17T05:43:25;5.88;;;3.47;;
39346;SDS011;26262;49.836;6.632;2024-03-17T05:45:51;5.00;;;3.53;;
39346;SDS011;26262;49.836;6.632;2024-03-17T05:48:18;6.28;;;3.47;;
39346;SDS011;26262;49.836;6.632;2024-03-17T05:50:43;4.65;;;3.40;;
39346;SDS011;26262;49.836;6.632;2024-03-17T05:53:09;6.38;;;3.50;;
39346;SDS011;26262;49.836;6.632;2024-03-17T05:55:35;4.80;;;3.63;;
39346;SDS011;26262;49.836;6.632;2024-03-17T05:58:01;5.65;;;3.70;;
39346;SDS011;26262;49.836;6.632;2024-03-17T06:00:27;6.45;;;3.65;;
39346;SDS011;26262;49.836;6.632;2024-03-17T06:02:53;5.28;;;3.58;;
39346;SDS011;26262;49.836;6.632;2024-03-17T06:05:18;5.10;;;3.85;;
39346;SDS011;26262;49.836;6.632;2024-03-17T06:07:44;5.60;;;3.97;;
39346;SDS011;26262;49.836;6.632;2024-03-17T06:10:09;7.03;;;4.97;;
39346;SDS011;26262;49.836;6.632;2024-03-17T06:12:35;6.95;;;4.82;;
39346;SDS011;26262;49.836;6.632;2024-03-17T06:15:02;6.05;;;3.97;;
39346;SDS011;26262;49.836;6.632;2024-03-17T06:17:27;5.63;;;4.00;;
39346;SDS011;26262;49.836;6.632;2024-03-17T06:19:54;4.88;;;3.90;;
39346;SDS011;26262;49.836;6.632;2024-03-17T06:22:19;5.80;;;4.60;;
39346;SDS011;26262;49.836;6.632;2024-03-17T06:24:45;6.55;;;4.28;;
39346;SDS011;26262;49.836;6.632;2024-03-17T06:27:10;6.30;;;4.60;;
39346;SDS011;26262;49.836;6.632;2024-03-17T06:29:36;7.10;;;4.32;;
39346;SDS011;26262;49.836;6.632;2024-03-17T06:32:01;5.25;;;4.15;;
39346;SDS011;26262;49.836;6.632;2024-03-17T06:34:27;7.18;;;4.82;;
39346;SDS011;26262;49.836;6.632;2024-03-17T06:36:52;8.50;;;4.63;;
39346;SDS011;26262;49.836;6.632;2024-03-17T06:39:18;5.43;;;4.32;;
39346;SDS011;26262;49.836;6.632;2024-03-17T06:41:46;6.15;;;4.60;;
39346;SDS011;26262;49.836;6.632;2024-03-17T06:44:11;6.53;;;4.50;;
39346;SDS011;26262;49.836;6.632;2024-03-17T06:46:37;9.05;;;4.80;;
39346;SDS011;26262;49.836;6.632;2024-03-17T06:49:02;7.50;;;4.65;;
39346;SDS011;26262;49.836;6.632;2024-03-17T06:51:28;5.55;;;4.47;;
39346;SDS011;26262;49.836;6.632;2024-03-17T06:53:53;5.78;;;4.60;;
39346;SDS011;26262;49.836;6.632;2024-03-17T06:56:19;7.97;;;5.15;;
39346;SDS011;26262;49.836;6.632;2024-03-17T06:58:44;7.78;;;5.03;;
39346;SDS011;26262;49.836;6.632;2024-03-17T07:01:10;5.78;;;4.30;;
39346;SDS011;26262;49.836;6.632;2024-03-17T07:03:35;6.45;;;4.50;;
39346;SDS011;26262;49.836;6.632;2024-03-17T07:06:01;6.28;;;4.15;;
39346;SDS011;26262;49.836;6.632;2024-03-17T07:08:28;5.50;;;4.47;;
39346;SDS011;26262;49.836;6.632;2024-03-17T07:11:01;6.28;;;5.38;;
39346;SDS011;26262;49.836;6.632;2024-03-17T07:13:35;5.63;;;4.83;;
39346;SDS011;26262;49.836;6.632;2024-03-17T07:16:01;7.10;;;4.43;;
39346;SDS011;26262;49.836;6.632;2024-03-17T07:18:28;6.32;;;5.00;;
39346;SDS011;26262;49.836;6.632;2024-03-17T07:20:58;6.30;;;4.78;;
39346;SDS011;26262;49.836;6.632;2024-03-17T07:23:24;6.03;;;4.88;;
39346;SDS011;26262;49.836;6.632;2024-03-17T07:25:59;7.85;;;5.20;;
39346;SDS011;26262;49.836;6.632;2024-03-17T07:28:25;6.00;;;4.70;;
39346;SDS011;26262;49.836;6.632;2024-03-17T07:30:51;5.60;;;4.55;;
39346;SDS011;26262;49.836;6.632;2024-03-17T07:33:19;6.80;;;4.43;;
39346;SDS011;26262;49.836;6.632;2024-03-17T07:38:17;5.78;;;5.13;;
39346;SDS011;26262;49.836;6.632;2024-03-17T07:40:44;5.93;;;5.15;;
39346;SDS011;26262;49.836;6.632;2024-03-17T07:43:20;5.03;;;4.38;;
39346;SDS011;26262;49.836;6.632;2024-03-17T07:45:45;6.60;;;5.15;;
39346;SDS011;26262;49.836;6.632;2024-03-17T07:48:12;7.30;;;5.20;;
39346;SDS011;26262;49.836;6.632;2024-03-17T07:50:37;5.50;;;4.65;;
39346;SDS011;26262;49.836;6.632;2024-03-17T07:53:03;11.65;;;9.32;;
39346;SDS011;26262;49.836;6.632;2024-03-17T07:55:29;5.82;;;5.18;;
39346;SDS011;26262;49.836;6.632;2024-03-17T07:57:56;4.73;;;4.00;;
39346;SDS011;26262;49.836;6.632;2024-03-17T08:00:21;4.95;;;4.45;;
39346;SDS011;26262;49.836;6.632;2024-03-17T08:02:47;9.50;;;6.07;;
39346;SDS011;26262;49.836;6.632;2024-03-17T08:05:13;9.20;;;4.60;;
39346;SDS011;26262;49.836;6.632;2024-03-17T08:07:39;5.47;;;4.97;;
39346;SDS011;26262;49.836;6.632;2024-03-17T08:10:05;5.28;;;3.72;;
39346;SDS011;26262;49.836;6.632;2024-03-17T08:12:30;5.13;;;4.03;;
39346;SDS011;26262;49.836;6.632;2024-03-17T08:14:56;7.03;;;4.15;;
39346;SDS011;26262;49.836;6.632;2024-03-17T08:17:22;5.25;;;3.83;;
39346;SDS011;26262;49.836;6.632;2024-03-17T08:19:47;5.45;;;4.07;;
39346;SDS011;26262;49.836;6.632;2024-03-17T08:22:13;6.70;;;4.38;;
39346;SDS011;26262;49.836;6.632;2024-03-17T08:24:39;4.22;;;3.47;;
39346;SDS011;26262;49.836;6.632;2024-03-17T08:27:05;4.00;;;2.88;;
39346;SDS011;26262;49.836;6.632;2024-03-17T08:29:31;4.90;;;3.20;;
39346;SDS011;26262;49.836;6.632;2024-03-17T08:31:58;5.15;;;3.58;;
39346;SDS011;26262;49.836;6.632;2024-03-17T08:34:24;3.50;;;2.40;;
39346;SDS011;26262;49.836;6.632;2024-03-17T08:36:49;4.00;;;2.80;;
39346;SDS011;26262;49.836;6.632;2024-03-17T08:39:15;6.70;;;3.05;;
39346;SDS011;26262;49.836;6.632;2024-03-17T08:41:40;4.78;;;3.30;;
39346;SDS011;26262;49.836;6.632;2024-03-17T08:44:06;6.53;;;3.72;;
39346;SDS011;26262;49.836;6.632;2024-03-17T08:46:32;4.40;;;3.35;;
39346;SDS011;26262;49.836;6.632;2024-03-17T08:48:58;5.65;;;3.22;;
39346;SDS011;26262;49.836;6.632;2024-03-17T08:51:23;3.75;;;3.03;;
39346;SDS011;26262;49.836;6.632;2024-03-17T08:53:49;7.63;;;3.80;;
39346;SDS011;26262;49.836;6.632;2024-03-17T08:56:14;3.78;;;2.55;;
39346;SDS011;26262;49.836;6.632;2024-03-17T08:58:40;4.97;;;2.70;;
39346;SDS011;26262;49.836;6.632;2024-03-17T09:01:06;4.47;;;2.80;;
39346;SDS011;26262;49.836;6.632;2024-03-17T09:03:32;4.32;;;2.42;;
39346;SDS011;26262;49.836;6.632;2024-03-17T09:05:59;4.30;;;2.90;;
39346;SDS011;26262;49.836;6.632;2024-03-17T09:08:24;4.70;;;3.20;;
39346;SDS011;26262;49.836;6.632;2024-03-17T09:10:52;4.10;;;2.67;;
39346;SDS011;26262;49.836;6.632;2024-03-17T09:13:21;4.27;;;2.43;;
39346;SDS011;26262;49.836;6.632;2024-03-17T09:15:55;3.25;;;2.40;;
39346;SDS011;26262;49.836;6.632;2024-03-17T09:18:25;3.53;;;2.58;;
39346;SDS011;26262;49.836;6.632;2024-03-17T09:20:55;3.53;;;2.45;;
39346;SDS011;26262;49.836;6.632;2024-03-17T09:23:21;3.58;;;2.70;;
39346;SDS011;26262;49.836;6.632;2024-03-17T09:25:54;5.00;;;2.55;;
39346;SDS011;26262;49.836;6.632;2024-03-17T09:28:21;4.65;;;2.80;;
39346;SDS011;26262;49.836;6.632;2024-03-17T09:30:47;4.00;;;2.88;;
39346;SDS011;26262;49.836;6.632;2024-03-17T09:33:12;4.57;;;2.65;;
39346;SDS011;26262;49.836;6.632;2024-03-17T09:35:38;3.53;;;2.55;;
39346;SDS011;26262;49.836;6.632;2024-03-17T09:38:03;4.90;;;2.80;;
39346;SDS011;26262;49.836;6.632;2024-03-17T09:40:29;3.65;;;2.65;;
39346;SDS011;26262;49.836;6.632;2024-03-17T09:42:55;8.68;;;5.00;;
39346;SDS011;26262;49.836;6.632;2024-03-17T09:45:21;5.22;;;3.05;;
39346;SDS011;26262;49.836;6.632;2024-03-17T09:47:49;5.72;;;3.13;;
39346;SDS011;26262;49.836;6.632;2024-03-17T09:50:16;4.55;;;3.20;;
39346;SDS011;26262;49.836;6.632;2024-03-17T09:52:44;4.88;;;2.85;;
39346;SDS011;26262;49.836;6.632;2024-03-17T09:55:13;7.70;;;3.97;;
39346;SDS011;26262;49.836;6.632;2024-03-17T09:57:41;6.50;;;3.65;;
39346;SDS011;26262;49.836;6.632;2024-03-17T10:00:09;7.63;;;3.33;;
39346;SDS011;26262;49.836;6.632;2024-03-17T10:02:45;6.20;;;3.20;;
39346;SDS011;26262;49.836;6.632;2024-03-17T10:05:18;7.45;;;3.30;;
39346;SDS011;26262;49.836;6.632;2024-03-17T10:07:48;5.10;;;3.17;;
39346;SDS011;26262;49.836;6.632;2024-03-17T10:10:14;5.25;;;3.42;;
39346;SDS011;26262;49.836;6.632;2024-03-17T10:12:47;4.68;;;3.55;;
39346;SDS011;26262;49.836;6.632;2024-03-17T10:15:15;5.18;;;3.85;;
39346;SDS011;26262;49.836;6.632;2024-03-17T10:17:41;5.32;;;3.88;;
39346;SDS011;26262;49.836;6.632;2024-03-17T10:20:11;5.85;;;3.45;;
39346;SDS011;26262;49.836;6.632;2024-03-17T10:22:41;7.18;;;4.13;;
39346;SDS011;26262;49.836;6.632;2024-03-17T10:25:23;11.57;;;6.65;;
39346;SDS011;26262;49.836;6.632;2024-03-17T10:27:49;8.15;;;5.45;;
39346;SDS011;26262;49.836;6.632;2024-03-17T10:30:18;8.00;;;5.20;;
39346;SDS011;26262;49.836;6.632;2024-03-17T10:32:53;10.25;;;7.40;;
39346;SDS011;26262;49.836;6.632;2024-03-17T10:35:33;10.30;;;6.95;;
39346;SDS011;26262;49.836;6.632;2024-03-17T10:38:03;8.02;;;5.70;;
39346;SDS011;26262;49.836;6.632;2024-03-17T10:40:30;6.95;;;4.75;;
39346;SDS011;26262;49.836;6.632;2024-03-17T10:42:58;6.60;;;4.82;;
39346;SDS011;26262;49.836;6.632;2024-03-17T10:45:25;8.70;;;5.93;;
39346;SDS011;26262;49.836;6.632;2024-03-17T10:47:52;11.18;;;7.22;;
39346;SDS011;26262;49.836;6.632;2024-03-17T10:50:21;13.43;;;9.07;;
39346;SDS011;26262;49.836;6.632;2024-03-17T10:52:49;8.45;;;5.82;;
39346;SDS011;26262;49.836;6.632;2024-03-17T10:55:20;10.37;;;5.60;;
39346;SDS011;26262;49.836;6.632;2024-03-17T10:57:47;10.13;;;6.32;;
39346;SDS011;26262;49.836;6.632;2024-03-17T11:00:15;25.27;;;19.45;;
39346;SDS011;26262;49.836;6.632;2024-03-17T11:02:43;11.27;;;7.95;;
39346;SDS011;26262;49.836;6.632;2024-03-17T11:05:20;11.15;;;7.10;;
39346;SDS011;26262;49.836;6.632;2024-03-17T11:07:49;10.45;;;6.47;;
39346;SDS011;26262;49.836;6.632;2024-03-17T11:10:21;8.90;;;6.68;;
39346;SDS011;26262;49.836;6.632;2024-03-17T11:12:51;11.55;;;6.90;;
39346;SDS011;26262;49.836;6.632;2024-03-17T11:20:34;11.20;;;7.30;;
39346;SDS011;26262;49.836;6.632;2024-03-17T11:23:01;9.75;;;6.30;;
39346;SDS011;26262;49.836;6.632;2024-03-17T11:27:58;10.13;;;6.55;;
39346;SDS011;26262;49.836;6.632;2024-03-17T11:38:57;10.90;;;6.57;;
39346;SDS011;26262;49.836;6.632;2024-03-17T11:46:57;10.48;;;5.82;;
39346;SDS011;26262;49.836;6.632;2024-03-17T11:49:25;9.90;;;5.85;;
39346;SDS011;26262;49.836;6.632;2024-03-17T11:51:59;10.80;;;6.68;;
39346;SDS011;26262;49.836;6.632;2024-03-17T11:54:29;10.90;;;6.13;;
39346;SDS011;26262;49.836;6.632;2024-03-17T11:57:00;10.32;;;5.95;;
39346;SDS011;26262;49.836;6.632;2024-03-17T11:59:26;11.57;;;6.85;;
39346;SDS011;26262;49.836;6.632;2024-03-17T12:01:52;10.85;;;6.47;;
39346;SDS011;26262;49.836;6.632;2024-03-17T12:04:18;9.50;;;5.88;;
39346;SDS011;26262;49.836;6.632;2024-03-17T12:06:56;9.32;;;5.85;;
39346;SDS011;26262;49.836;6.632;2024-03-17T12:14:29;9.48;;;6.75;;
39346;SDS011;26262;49.836;6.632;2024-03-17T12:16:56;8.60;;;5.55;;
39346;SDS011;26262;49.836;6.632;2024-03-17T12:19:22;8.55;;;5.60;;
39346;SDS011;26262;49.836;6.632;2024-03-17T12:21:49;9.20;;;5.70;;
39346;SDS011;26262;49.836;6.632;2024-03-17T12:24:17;9.18;;;6.03;;
39346;SDS011;26262;49.836;6.632;2024-03-17T12:26:44;11.65;;;6.30;;
39346;SDS011;26262;49.836;6.632;2024-03-17T12:29:28;11.05;;;6.20;;
39346;SDS011;26262;49.836;6.632;2024-03-17T12:31:58;10.07;;;5.45;;
39346;SDS011;26262;49.836;6.632;2024-03-17T12:34:26;10.65;;;5.90;;
39346;SDS011;26262;49.836;6.632;2024-03-17T12:36:53;8.98;;;5.88;;
39346;SDS011;26262;49.836;6.632;2024-03-17T12:39:21;9.17;;;5.20;;
39346;SDS011;26262;49.836;6.632;2024-03-17T12:44:50;9.32;;;5.22;;
39346;SDS011;26262;49.836;6.632;2024-03-17T12:47:17;8.55;;;4.78;;
39346;SDS011;26262;49.836;6.632;2024-03-17T12:49:53;10.00;;;5.93;;
39346;SDS011;26262;49.836;6.632;2024-03-17T12:52:23;7.07;;;5.03;;
39346;SDS011;26262;49.836;6.632;2024-03-17T12:57:49;8.95;;;5.28;;
39346;SDS011;26262;49.836;6.632;2024-03-17T13:00:37;7.68;;;4.88;;
39346;SDS011;26262;49.836;6.632;2024-03-17T13:03:06;7.47;;;4.53;;
39346;SDS011;26262;49.836;6.632;2024-03-17T13:05:33;6.68;;;4.68;;
39346;SDS011;26262;49.836;6.632;2024-03-17T13:07:59;8.45;;;4.45;;
39346;SDS011;26262;49.836;6.632;2024-03-17T13:10:25;7.97;;;4.82;;
39346;SDS011;26262;49.836;6.632;2024-03-17T13:13:01;7.95;;;5.50;;
39346;SDS011;26262;49.836;6.632;2024-03-17T13:15:28;9.10;;;5.63;;
39346;SDS011;26262;49.836;6.632;2024-03-17T13:17:59;7.00;;;4.68;;
39346;SDS011;26262;49.836;6.632;2024-03-17T13:20:25;6.75;;;4.63;;
39346;SDS011;26262;49.836;6.632;2024-03-17T13:22:51;8.57;;;5.32;;
39346;SDS011;26262;49.836;6.632;2024-03-17T13:25:18;8.52;;;5.40;;
39346;SDS011;26262;49.836;6.632;2024-03-17T13:27:49;7.95;;;4.70;;
39346;SDS011;26262;49.836;6.632;2024-03-17T13:30:16;9.32;;;5.20;;
39346;SDS011;26262;49.836;6.632;2024-03-17T13:32:43;9.70;;;5.60;;
39346;SDS011;26262;49.836;6.632;2024-03-17T13:35:19;10.20;;;6.28;;
39346;SDS011;26262;49.836;6.632;2024-03-17T13:37:46;9.45;;;5.63;;
39346;SDS011;26262;49.836;6.632;2024-03-17T13:40:12;8.57;;;5.25;;
39346;SDS011;26262;49.836;6.632;2024-03-17T13:42:41;9.32;;;5.22;;
39346;SDS011;26262;49.836;6.632;2024-03-17T13:45:13;10.25;;;5.88;;
39346;SDS011;26262;49.836;6.632;2024-03-17T13:47:40;9.68;;;5.68;;
39346;SDS011;26262;49.836;6.632;2024-03-17T13:50:06;10.60;;;6.43;;
39346;SDS011;26262;49.836;6.632;2024-03-17T13:52:36;17.73;;;8.40;;
39346;SDS011;26262;49.836;6.632;2024-03-17T13:55:03;9.10;;;5.13;;
39346;SDS011;26262;49.836;6.632;2024-03-17T13:57:31;11.40;;;6.13;;
39346;SDS011;26262;49.836;6.632;2024-03-17T14:00:00;8.40;;;5.47;;
39346;SDS011;26262;49.836;6.632;2024-03-17T14:02:25;10.90;;;5.13;;
39346;SDS011;26262;49.836;6.632;2024-03-17T14:04:51;8.68;;;5.47;;
39346;SDS011;26262;49.836;6.632;2024-03-17T14:07:16;8.13;;;4.60;;
39346;SDS011;26262;49.836;6.632;2024-03-17T14:09:42;11.40;;;6.53;;
39346;SDS011;26262;49.836;6.632;2024-03-17T14:12:08;10.05;;;4.90;;
39346;SDS011;26262;49.836;6.632;2024-03-17T14:14:33;11.52;;;7.10;;
39346;SDS011;26262;49.836;6.632;2024-03-17T14:16:59;9.18;;;5.60;;
39346;SDS011;26262;49.836;6.632;2024-03-17T14:19:25;10.20;;;5.40;;
39346;SDS011;26262;49.836;6.632;2024-03-17T14:21:50;6.90;;;4.82;;
39346;SDS011;26262;49.836;6.632;2024-03-17T14:24:16;9.50;;;4.72;;
39346;SDS011;26262;49.836;6.632;2024-03-17T14:26:42;7.85;;;4.82;;
39346;SDS011;26262;49.836;6.632;2024-03-17T14:29:07;7.07;;;4.60;;
39346;SDS011;26262;49.836;6.632;2024-03-17T14:31:33;8.38;;;4.72;;
39346;SDS011;26262;49.836;6.632;2024-03-17T14:34:01;8.77;;;4.45;;
39346;SDS011;26262;49.836;6.632;2024-03-17T14:36:31;6.55;;;4.25;;
39346;SDS011;26262;49.836;6.632;2024-03-17T14:38:57;7.20;;;4.10;;
39346;SDS011;26262;49.836;6.632;2024-03-17T14:41:29;5.80;;;3.83;;
39346;SDS011;26262;49.836;6.632;2024-03-17T14:43:56;7.90;;;4.05;;
39346;SDS011;26262;49.836;6.632;2024-03-17T14:46:22;6.68;;;4.07;;
39346;SDS011;26262;49.836;6.632;2024-03-17T14:48:51;5.68;;;3.72;;
39346;SDS011;26262;49.836;6.632;2024-03-17T14:51:17;7.05;;;3.97;;
39346;SDS011;26262;49.836;6.632;2024-03-17T14:53:43;8.52;;;3.90;;
39346;SDS011;26262;49.836;6.632;2024-03-17T14:56:16;7.13;;;3.85;;
39346;SDS011;26262;49.836;6.632;2024-03-17T14:58:42;6.70;;;3.20;;
39346;SDS011;26262;49.836;6.632;2024-03-17T15:01:08;5.78;;;2.92;;
39346;SDS011;26262;49.836;6.632;2024-03-17T15:03:34;11.65;;;3.65;;
39346;SDS011;26262;49.836;6.632;2024-03-17T15:06:00;5.38;;;3.03;;
39346;SDS011;26262;49.836;6.632;2024-03-17T15:08:26;5.63;;;3.15;;
39346;SDS011;26262;49.836;6.632;2024-03-17T15:10:53;5.18;;;2.80;;
39346;SDS011;26262;49.836;6.632;2024-03-17T15:13:19;6.07;;;3.00;;
39346;SDS011;26262;49.836;6.632;2024-03-17T15:15:45;5.60;;;3.00;;
39346;SDS011;26262;49.836;6.632;2024-03-17T15:18:12;4.63;;;2.33;;
39346;SDS011;26262;49.836;6.632;2024-03-17T15:20:38;6.70;;;3.47;;
39346;SDS011;26262;49.836;6.632;2024-03-17T15:23:03;4.75;;;3.20;;